Terminal Aerodrome Forecast
Issued by NWS

Home | Current Version | Previous Version | Text Only | Print | Product List | Glossary On
Versions: 1 2 3 4 5 6 7 8 9 10 11 12 13 14 15 16 17 18 19 20 21 22 23 24 25 26 27 28 29 30
000
FTUS44 KHGX 021128
TAFSGR
TAF
KSGR 021128Z 0212/0312 VRB05KT P6SM SKC
     FM022200 13008KT P6SM SKC
     FM030200 VRB04KT P6SM SCT250
      TEMPO 0310/0312 00000KT MIFG SKC=

USA.gov is the U.S. government's official web portal to all federal, state and local government web resources and services.